Time;durP1;ratioP1;P1;durP2;ratioP2;P2;SDS_P1;SDS_P2;PMS_P1;PMS_P2;Temp;Humidity;BMP_temperature;BMP_pressure;BME280_temperature;BME280_humidity;BME280_pressure;Samples;Min_cycle;Max_cycle;Signal;HPM_P1;HPM_P2
2022/12/03 00:00:11;;;;;;;;;;;4.10;99.90;;;;;;7340982;19;112858;-68
2022/12/03 00:02:39;;;;;;;;;;;4.00;99.90;;;;;;7338348;19;108959;-68
2022/12/03 00:05:06;;;;;;;;;;;4.00;99.90;;;;;;7344215;19;108321;-68
2022/12/03 00:07:33;;;;;;;;;;;4.10;99.90;;;;;;7343533;19;110714;-67
2022/12/03 00:10:00;;;;;;;;;;;4.10;99.90;;;;;;7340324;19;108886;-67
2022/12/03 00:12:28;;;;;;;;;;;4.10;99.90;;;;;;7339201;19;109040;-68
2022/12/03 00:14:54;;;;;;;;;;;4.10;99.90;;;;;;7342872;19;110261;-67
2022/12/03 00:17:22;;;;;;;;;;;4.10;99.90;;;;;;7341871;19;108531;-68
2022/12/03 00:19:49;;;;;;;;;;;4.10;99.90;;;;;;7341846;19;109106;-68
2022/12/03 00:22:15;;;;;;;;;;;4.10;99.90;;;;;;7348003;19;109390;-69
2022/12/03 00:24:42;;;;;;;;;;;4.10;99.90;;;;;;7342347;19;110017;-68
2022/12/03 00:27:09;;;;;;;;;;;4.10;99.90;;;;;;7341920;19;109340;-71
2022/12/03 00:29:36;;;;;;;;;;;4.10;99.90;;;;;;7339867;19;111002;-69
2022/12/03 00:32:03;;;;;;;;;;;4.10;99.90;;;;;;7339442;19;110111;-72
2022/12/03 00:34:30;;;;;;;;;;;4.10;99.90;;;;;;7338696;19;110040;-69
2022/12/03 00:36:56;;;;;;;;;;;4.10;99.90;;;;;;7339549;19;108299;-73
2022/12/03 00:39:23;;;;;;;;;;;4.10;99.90;;;;;;7337660;19;109626;-74
2022/12/03 00:41:50;;;;;;;;;;;4.10;99.90;;;;;;7341490;19;110953;-70
2022/12/03 00:44:17;;;;;;;;;;;4.10;99.90;;;;;;7346204;19;108294;-72
2022/12/03 00:46:44;;;;;;;;;;;4.10;99.90;;;;;;7341528;19;109305;-72
2022/12/03 00:49:11;;;;;;;;;;;4.00;99.90;;;;;;7339296;19;110448;-69
2022/12/03 00:51:37;;;;;;;;;;;4.10;99.90;;;;;;7340618;19;110167;-72
2022/12/03 00:54:04;;;;;;;;;;;4.10;99.90;;;;;;7339443;19;111340;-70
2022/12/03 00:56:33;;;;;;;;;;;4.10;99.90;;;;;;7340378;19;108636;-68
2022/12/03 00:59:00;;;;;;;;;;;4.10;99.90;;;;;;7340533;19;109759;-70
2022/12/03 01:01:27;;;;;;;;;;;4.00;99.90;;;;;;7337562;19;113649;-68
2022/12/03 01:03:54;;;;;;;;;;;4.10;99.90;;;;;;7339551;19;109425;-67
2022/12/03 01:06:21;;;;;;;;;;;4.10;99.90;;;;;;7344543;19;109323;-68
2022/12/03 01:08:48;;;;;;;;;;;4.20;99.90;;;;;;7340704;19;108777;-69
2022/12/03 01:14:00;;;;;;;;;;;4.10;99.90;;;;;;7339821;19;109260;-68
2022/12/03 01:16:27;;;;;;;;;;;4.00;99.90;;;;;;7338339;19;108733;-68
2022/12/03 01:18:54;;;;;;;;;;;4.10;99.90;;;;;;7339642;19;109548;-68
2022/12/03 01:21:21;;;;;;;;;;;4.00;99.90;;;;;;7338041;19;110367;-68
2022/12/03 01:23:47;;;;;;;;;;;4.00;99.90;;;;;;7340057;19;108377;-68
2022/12/03 01:26:14;;;;;;;;;;;4.00;99.90;;;;;;7344050;19;109252;-71
2022/12/03 01:28:41;;;;;;;;;;;4.00;99.90;;;;;;7340466;19;109915;-70
2022/12/03 01:33:54;;;;;;;;;;;4.00;99.90;;;;;;7339717;19;110420;-72
2022/12/03 01:36:21;;;;;;;;;;;4.00;99.90;;;;;;7338175;19;109080;-75
2022/12/03 01:38:48;;;;;;;;;;;4.10;99.90;;;;;;7339218;19;109228;-76
2022/12/03 01:41:16;;;;;;;;;;;4.00;99.90;;;;;;7337820;19;110168;-76
2022/12/03 01:43:43;;;;;;;;;;;4.00;99.90;;;;;;7339925;19;108624;-73
2022/12/03 01:46:12;;;;;;;;;;;4.00;99.90;;;;;;7340988;19;112745;-70
2022/12/03 01:48:39;;;;;;;;;;;4.10;99.90;;;;;;7342821;19;109139;-78
2022/12/03 01:51:06;;;;;;;;;;;4.10;99.90;;;;;;7338572;19;109276;-70
2022/12/03 01:53:33;;;;;;;;;;;4.10;99.90;;;;;;7339520;19;110394;-77
2022/12/03 01:56:00;;;;;;;;;;;4.00;99.90;;;;;;7340304;19;108616;-72
2022/12/03 01:58:27;;;;;;;;;;;4.00;99.90;;;;;;7338057;19;109421;-75
2022/12/03 02:00:56;;;;;;;;;;;4.00;99.90;;;;;;7338984;19;110272;-68
2022/12/03 02:03:24;;;;;;;;;;;4.00;99.90;;;;;;7338277;19;110839;-68
2022/12/03 02:05:51;;;;;;;;;;;4.00;99.90;;;;;;7340469;19;111702;-67
2022/12/03 02:08:32;;;;;;;;;;;4.00;99.90;;;;;;7339420;19;110300;-69
2022/12/03 02:11:19;;;;;;;;;;;4.00;99.90;;;;;;7345299;19;110135;-68
2022/12/03 02:13:52;;;;;;;;;;;4.00;99.90;;;;;;7338247;19;129692;-68
2022/12/03 02:16:19;;;;;;;;;;;4.00;99.90;;;;;;7342427;19;108727;-68
2022/12/03 02:18:46;;;;;;;;;;;4.00;99.90;;;;;;7339972;19;109123;-68
2022/12/03 02:21:22;;;;;;;;;;;4.00;99.90;;;;;;7338080;19;109348;-68
2022/12/03 02:23:51;;;;;;;;;;;4.00;99.90;;;;;;7339597;19;110012;-68
2022/12/03 02:26:18;;;;;;;;;;;4.00;99.90;;;;;;7337383;19;110264;-68
2022/12/03 02:28:45;;;;;;;;;;;4.00;99.90;;;;;;7339813;19;110402;-67
2022/12/03 02:31:12;;;;;;;;;;;4.00;99.90;;;;;;7340409;19;108583;-68
2022/12/03 02:33:39;;;;;;;;;;;4.00;99.90;;;;;;7344631;19;109151;-68
2022/12/03 02:36:06;;;;;;;;;;;4.00;99.90;;;;;;7337999;19;109545;-69
2022/12/03 02:38:34;;;;;;;;;;;4.00;99.90;;;;;;7339355;19;112545;-67
2022/12/03 02:41:07;;;;;;;;;;;4.10;99.90;;;;;;7338510;19;110634;-67
2022/12/03 02:43:34;;;;;;;;;;;4.10;99.90;;;;;;7337399;19;108809;-67
2022/12/03 02:46:02;;;;;;;;;;;4.10;99.90;;;;;;7339298;19;108704;-67
2022/12/03 02:48:34;;;;;;;;;;;4.00;99.90;;;;;;7337548;19;109292;-67
2022/12/03 02:51:05;;;;;;;;;;;4.10;99.90;;;;;;7340094;19;108921;-67
2022/12/03 02:53:40;;;;;;;;;;;4.10;99.90;;;;;;7338939;19;109560;-67
2022/12/03 02:56:08;;;;;;;;;;;4.10;99.90;;;;;;7341807;19;110466;-68
2022/12/03 02:58:35;;;;;;;;;;;4.10;99.90;;;;;;7339778;19;109758;-69
2022/12/03 03:01:03;;;;;;;;;;;4.00;99.90;;;;;;7338318;19;111288;-67
2022/12/03 03:03:31;;;;;;;;;;;4.10;99.90;;;;;;7338307;19;109000;-70
2022/12/03 03:05:59;;;;;;;;;;;4.10;99.90;;;;;;7338187;19;109154;-67
2022/12/03 03:08:26;;;;;;;;;;;4.10;99.90;;;;;;7338382;19;112499;-67
2022/12/03 03:10:54;;;;;;;;;;;4.10;99.90;;;;;;7339383;19;108324;-67
2022/12/03 03:13:22;;;;;;;;;;;4.10;99.90;;;;;;7336190;19;109213;-68
2022/12/03 03:15:49;;;;;;;;;;;4.10;99.90;;;;;;7338796;19;111228;-68
2022/12/03 03:18:16;;;;;;;;;;;4.10;99.90;;;;;;7343786;19;109801;-68
2022/12/03 03:20:43;;;;;;;;;;;4.20;99.90;;;;;;7338582;19;111617;-68
2022/12/03 03:23:10;;;;;;;;;;;4.20;99.90;;;;;;7335614;19;108737;-68
2022/12/03 03:25:38;;;;;;;;;;;4.10;99.90;;;;;;7337684;19;109848;-67
2022/12/03 03:28:05;;;;;;;;;;;4.10;99.90;;;;;;7338877;19;110724;-67
2022/12/03 03:30:34;;;;;;;;;;;4.10;99.90;;;;;;7337275;19;108540;-68
2022/12/03 03:33:01;;;;;;;;;;;4.10;99.90;;;;;;7338529;19;109437;-68
2022/12/03 03:35:28;;;;;;;;;;;4.10;99.90;;;;;;7336247;19;109149;-67
2022/12/03 03:37:55;;;;;;;;;;;4.10;99.90;;;;;;7342969;19;108344;-68
2022/12/03 03:40:23;;;;;;;;;;;4.10;99.90;;;;;;7344794;19;110343;-67
2022/12/03 03:42:50;;;;;;;;;;;4.10;99.90;;;;;;7345300;19;108308;-67
2022/12/03 03:45:17;;;;;;;;;;;4.10;99.90;;;;;;7343526;19;109612;-67
2022/12/03 03:47:51;;;;;;;;;;;4.00;99.90;;;;;;7343586;19;109427;-68
2022/12/03 03:50:18;;;;;;;;;;;4.10;99.90;;;;;;7344824;19;108565;-67
2022/12/03 03:52:45;;;;;;;;;;;4.00;99.90;;;;;;7345965;19;109394;-67
2022/12/03 03:55:12;;;;;;;;;;;4.00;99.90;;;;;;7341053;19;111108;-68
2022/12/03 03:57:42;;;;;;;;;;;4.10;99.90;;;;;;7342831;19;108725;-68
2022/12/03 04:00:09;;;;;;;;;;;4.10;99.90;;;;;;7346528;19;109452;-68
2022/12/03 04:02:36;;;;;;;;;;;4.10;99.90;;;;;;7343436;19;109024;-68
2022/12/03 04:05:03;;;;;;;;;;;4.20;99.90;;;;;;7343771;19;109668;-67
2022/12/03 04:07:30;;;;;;;;;;;4.20;99.90;;;;;;7341005;19;109143;-67
2022/12/03 04:09:57;;;;;;;;;;;4.10;99.90;;;;;;7344239;19;109448;-67
2022/12/03 04:15:10;;;;;;;;;;;4.10;99.90;;;;;;7340566;19;110241;-67
2022/12/03 04:17:36;;;;;;;;;;;4.10;99.90;;;;;;7343833;19;109229;-67
2022/12/03 04:20:04;;;;;;;;;;;4.10;99.90;;;;;;7341657;19;108400;-67
2022/12/03 04:22:39;;;;;;;;;;;4.20;99.90;;;;;;7345378;19;109827;-67
2022/12/03 04:30:38;;;;;;;;;;;4.20;99.90;;;;;;7344976;19;109328;-67
2022/12/03 04:35:51;;;;;;;;;;;4.20;99.90;;;;;;7344546;19;110746;-68
2022/12/03 04:38:18;;;;;;;;;;;4.20;99.90;;;;;;7342419;19;108531;-67
2022/12/03 04:40:59;;;;;;;;;;;4.10;99.90;;;;;;7341760;19;109295;-67
2022/12/03 04:43:27;;;;;;;;;;;4.10;99.90;;;;;;7341658;19;109748;-67
2022/12/03 04:45:54;;;;;;;;;;;4.10;99.90;;;;;;7349117;19;108803;-67
2022/12/03 04:48:20;;;;;;;;;;;4.10;99.90;;;;;;7340341;19;110047;-67
2022/12/03 04:50:47;;;;;;;;;;;4.10;99.90;;;;;;7340609;19;109307;-68
2022/12/03 04:53:14;;;;;;;;;;;4.00;99.90;;;;;;7343375;19;108561;-68
2022/12/03 04:55:41;;;;;;;;;;;4.10;99.90;;;;;;7340969;19;108494;-67
2022/12/03 04:58:08;;;;;;;;;;;4.10;99.90;;;;;;7341974;19;108826;-67
2022/12/03 05:00:35;;;;;;;;;;;4.10;99.90;;;;;;7340600;19;108697;-68
2022/12/03 05:03:02;;;;;;;;;;;4.10;99.90;;;;;;7340485;19;110268;-67
2022/12/03 05:05:29;;;;;;;;;;;4.00;99.90;;;;;;7340112;19;108820;-68
2022/12/03 05:07:56;;;;;;;;;;;4.00;99.90;;;;;;7347034;19;109217;-67
2022/12/03 05:10:23;;;;;;;;;;;4.00;99.90;;;;;;7339738;19;108618;-67
2022/12/03 05:12:50;;;;;;;;;;;4.00;99.90;;;;;;7342891;19;109545;-67
2022/12/03 05:15:16;;;;;;;;;;;4.00;99.90;;;;;;7340115;19;110363;-67
2022/12/03 05:17:43;;;;;;;;;;;4.00;99.90;;;;;;7341461;19;109207;-68
2022/12/03 05:22:56;;;;;;;;;;;4.10;99.90;;;;;;7341184;19;110283;-67
2022/12/03 05:25:23;;;;;;;;;;;4.10;99.90;;;;;;7340127;19;109136;-67
2022/12/03 05:27:50;;;;;;;;;;;4.00;99.90;;;;;;7343079;19;110929;-67
2022/12/03 05:30:17;;;;;;;;;;;4.00;99.90;;;;;;7345812;19;109774;-67
2022/12/03 05:32:43;;;;;;;;;;;4.00;99.90;;;;;;7340078;19;110436;-68
2022/12/03 05:35:10;;;;;;;;;;;4.00;99.90;;;;;;7339229;19;110924;-68
2022/12/03 05:37:37;;;;;;;;;;;4.00;99.90;;;;;;7339421;19;108535;-67
2022/12/03 05:40:05;;;;;;;;;;;4.00;99.90;;;;;;7339432;19;108392;-67
2022/12/03 05:45:18;;;;;;;;;;;4.10;99.90;;;;;;7340247;19;108815;-68
2022/12/03 05:47:44;;;;;;;;;;;4.10;99.90;;;;;;7337961;19;108935;-67
2022/12/03 05:50:11;;;;;;;;;;;4.10;99.90;;;;;;7346540;19;111139;-68
2022/12/03 05:52:38;;;;;;;;;;;4.10;99.90;;;;;;7341529;19;110058;-68
2022/12/03 05:55:06;;;;;;;;;;;4.10;99.90;;;;;;7338720;19;110370;-67
2022/12/03 05:57:33;;;;;;;;;;;4.20;99.90;;;;;;7340260;19;108931;-67
2022/12/03 06:00:00;;;;;;;;;;;4.10;99.90;;;;;;7343303;19;109493;-67
2022/12/03 06:02:27;;;;;;;;;;;4.10;99.90;;;;;;7335803;19;110481;-67
2022/12/03 06:04:54;;;;;;;;;;;4.10;99.90;;;;;;7338603;19;108721;-67
2022/12/03 06:07:21;;;;;;;;;;;4.10;99.90;;;;;;7338870;19;108994;-67
2022/12/03 06:09:48;;;;;;;;;;;4.10;99.90;;;;;;7340562;19;110564;-67
2022/12/03 06:12:15;;;;;;;;;;;4.00;99.90;;;;;;7344113;19;108409;-67
2022/12/03 06:14:42;;;;;;;;;;;4.00;99.90;;;;;;7338816;19;110486;-67
2022/12/03 06:17:09;;;;;;;;;;;4.00;99.90;;;;;;7338044;19;108428;-67
2022/12/03 06:19:36;;;;;;;;;;;4.00;99.90;;;;;;7340752;19;114144;-67
2022/12/03 06:22:02;;;;;;;;;;;4.00;99.90;;;;;;7339521;19;110826;-67
2022/12/03 06:24:29;;;;;;;;;;;4.00;99.90;;;;;;7336733;19;108555;-68
2022/12/03 06:26:56;;;;;;;;;;;4.10;99.90;;;;;;7340970;19;108953;-67
2022/12/03 06:29:23;;;;;;;;;;;4.20;99.90;;;;;;7336687;19;110234;-67
2022/12/03 06:31:50;;;;;;;;;;;4.20;99.90;;;;;;7339353;19;109406;-67
2022/12/03 06:34:17;;;;;;;;;;;4.10;99.90;;;;;;7343370;19;109611;-67
2022/12/03 06:36:45;;;;;;;;;;;4.10;99.90;;;;;;7338549;19;109112;-67
2022/12/03 06:39:12;;;;;;;;;;;4.10;99.90;;;;;;7338506;19;109361;-67
2022/12/03 06:41:39;;;;;;;;;;;4.10;99.90;;;;;;7339615;19;110483;-67
2022/12/03 06:44:06;;;;;;;;;;;4.10;99.90;;;;;;7337664;19;112620;-68
2022/12/03 06:46:33;;;;;;;;;;;4.10;99.90;;;;;;7339377;19;110045;-67
2022/12/03 06:49:00;;;;;;;;;;;4.10;99.90;;;;;;7337279;19;109478;-67
2022/12/03 06:51:27;;;;;;;;;;;4.10;99.90;;;;;;7338626;19;108626;-67
2022/12/03 06:53:54;;;;;;;;;;;4.20;99.90;;;;;;7338084;19;109561;-67
2022/12/03 06:56:20;;;;;;;;;;;4.10;99.90;;;;;;7342972;19;110363;-67
2022/12/03 06:58:48;;;;;;;;;;;4.10;99.90;;;;;;7338068;19;109501;-67
2022/12/03 07:01:15;;;;;;;;;;;4.00;99.90;;;;;;7336053;19;112919;-68
2022/12/03 07:03:42;;;;;;;;;;;4.00;99.90;;;;;;7338025;19;108432;-67
2022/12/03 07:06:09;;;;;;;;;;;4.10;99.90;;;;;;7337391;19;109560;-68
2022/12/03 07:08:35;;;;;;;;;;;4.00;99.90;;;;;;7337824;19;110373;-68
2022/12/03 07:11:02;;;;;;;;;;;4.00;99.90;;;;;;7337585;19;108627;-68
2022/12/03 07:13:29;;;;;;;;;;;4.10;99.90;;;;;;7349844;19;111135;-67
2022/12/03 07:15:56;;;;;;;;;;;4.20;99.90;;;;;;7350621;19;110988;-67
2022/12/03 07:18:23;;;;;;;;;;;4.20;99.90;;;;;;7356438;19;108934;-67
2022/12/03 07:20:50;;;;;;;;;;;4.20;99.90;;;;;;7352885;19;109438;-68
2022/12/03 07:23:17;;;;;;;;;;;4.20;99.90;;;;;;7350669;19;109231;-68
2022/12/03 07:25:44;;;;;;;;;;;4.20;99.90;;;;;;7352999;19;109297;-67
2022/12/03 07:28:11;;;;;;;;;;;4.20;99.90;;;;;;7347774;19;112333;-68
2022/12/03 07:30:37;;;;;;;;;;;4.20;99.90;;;;;;7351814;19;108764;-67
2022/12/03 07:33:04;;;;;;;;;;;4.20;99.90;;;;;;7351418;19;109528;-67
2022/12/03 07:35:31;;;;;;;;;;;4.20;99.90;;;;;;7350197;19;110183;-67
2022/12/03 07:37:58;;;;;;;;;;;4.20;99.90;;;;;;7351364;19;108506;-67
2022/12/03 07:40:25;;;;;;;;;;;4.20;99.90;;;;;;7356256;19;109077;-67
2022/12/03 07:42:52;;;;;;;;;;;4.20;99.90;;;;;;7351966;19;108861;-67
2022/12/03 07:45:19;;;;;;;;;;;4.10;99.90;;;;;;7350192;19;109173;-67
2022/12/03 07:47:45;;;;;;;;;;;4.20;99.90;;;;;;7349108;19;110916;-68
2022/12/03 07:50:12;;;;;;;;;;;4.20;99.90;;;;;;7350172;19;108895;-67
2022/12/03 07:52:39;;;;;;;;;;;4.20;99.90;;;;;;7351090;19;108488;-68
2022/12/03 07:55:06;;;;;;;;;;;4.20;99.90;;;;;;7350792;19;109495;-68
2022/12/03 07:57:33;;;;;;;;;;;4.20;99.90;;;;;;7353625;19;108742;-68
2022/12/03 08:00:00;;;;;;;;;;;4.10;99.90;;;;;;7356465;19;111130;-67
2022/12/03 08:02:27;;;;;;;;;;;4.10;99.90;;;;;;7351791;19;109462;-67
2022/12/03 08:04:54;;;;;;;;;;;4.10;99.90;;;;;;7349507;19;109494;-67
2022/12/03 08:07:21;;;;;;;;;;;4.10;99.90;;;;;;7345794;19;109359;-67
2022/12/03 08:09:48;;;;;;;;;;;4.20;99.90;;;;;;7350977;19;108737;-67
2022/12/03 08:12:16;;;;;;;;;;;4.30;99.90;;;;;;7349725;19;109186;-67
2022/12/03 08:14:43;;;;;;;;;;;4.20;99.90;;;;;;7351443;19;113236;-67
2022/12/03 08:17:11;;;;;;;;;;;4.20;99.90;;;;;;7348532;19;109222;-67
2022/12/03 08:19:45;;;;;;;;;;;4.10;99.90;;;;;;7351147;19;109321;-67
2022/12/03 08:22:13;;;;;;;;;;;4.20;99.90;;;;;;7356073;19;109216;-68
2022/12/03 08:24:41;;;;;;;;;;;4.20;99.90;;;;;;7344509;19;109350;-67
2022/12/03 08:27:16;;;;;;;;;;;4.30;99.90;;;;;;7345854;19;110159;-67
2022/12/03 08:29:43;;;;;;;;;;;4.40;99.90;;;;;;7344975;19;108521;-67
2022/12/03 08:32:11;;;;;;;;;;;4.30;99.90;;;;;;7342730;19;109639;-67
2022/12/03 08:34:39;;;;;;;;;;;4.30;99.90;;;;;;7342676;19;109192;-67
2022/12/03 08:37:15;;;;;;;;;;;4.30;99.90;;;;;;7342699;19;109247;-67
2022/12/03 08:39:49;;;;;;;;;;;4.40;99.90;;;;;;7344884;19;108692;-68
2022/12/03 08:42:40;;;;;;;;;;;4.40;99.90;;;;;;7341204;19;109106;-68
2022/12/03 08:45:26;;;;;;;;;;;4.30;99.90;;;;;;7347300;19;108845;-67
2022/12/03 08:47:54;;;;;;;;;;;4.30;99.90;;;;;;7339720;19;110414;-68
2022/12/03 08:50:31;;;;;;;;;;;4.40;99.90;;;;;;7345422;19;109485;-68
2022/12/03 08:53:08;;;;;;;;;;;4.40;99.90;;;;;;7341618;19;109047;-68
2022/12/03 08:55:35;;;;;;;;;;;4.40;99.90;;;;;;7341709;19;114270;-67
2022/12/03 08:58:22;;;;;;;;;;;4.40;99.90;;;;;;7342320;19;109062;-68
2022/12/03 09:00:56;;;;;;;;;;;4.30;99.90;;;;;;7341270;19;108296;-67
2022/12/03 09:03:23;;;;;;;;;;;4.30;99.90;;;;;;7339830;19;109651;-67
2022/12/03 09:05:50;;;;;;;;;;;4.40;99.90;;;;;;7338952;19;110086;-68
2022/12/03 09:08:17;;;;;;;;;;;4.30;99.90;;;;;;7345521;19;109446;-68
2022/12/03 09:10:44;;;;;;;;;;;4.30;99.90;;;;;;7341418;19;109156;-67
2022/12/03 09:13:11;;;;;;;;;;;4.30;99.90;;;;;;7341041;19;109361;-68
2022/12/03 09:15:38;;;;;;;;;;;4.40;99.90;;;;;;7341174;19;110287;-69
2022/12/03 09:18:05;;;;;;;;;;;4.30;99.90;;;;;;7336957;19;108840;-68
2022/12/03 09:20:31;;;;;;;;;;;4.40;99.90;;;;;;7340012;19;111684;-68
2022/12/03 09:22:58;;;;;;;;;;;4.40;99.90;;;;;;7338955;19;110306;-67
2022/12/03 09:25:25;;;;;;;;;;;4.40;99.90;;;;;;7341035;19;108923;-67
2022/12/03 09:27:52;;;;;;;;;;;4.50;99.90;;;;;;7340506;19;109469;-68
2022/12/03 09:30:19;;;;;;;;;;;4.50;99.90;;;;;;7341371;19;110773;-68
2022/12/03 09:32:46;;;;;;;;;;;4.50;99.90;;;;;;7338884;19;109144;-67
2022/12/03 09:35:13;;;;;;;;;;;4.60;99.90;;;;;;7338084;19;110827;-67
2022/12/03 09:37:39;;;;;;;;;;;4.60;99.90;;;;;;7339868;19;108719;-67
2022/12/03 09:40:07;;;;;;;;;;;4.60;99.90;;;;;;7340416;19;112959;-67
2022/12/03 09:42:34;;;;;;;;;;;4.70;99.90;;;;;;7339319;19;110363;-67
2022/12/03 09:45:02;;;;;;;;;;;4.70;99.90;;;;;;7340543;19;108402;-67
2022/12/03 09:47:29;;;;;;;;;;;4.80;99.90;;;;;;7340522;19;108896;-67
2022/12/03 09:49:57;;;;;;;;;;;4.90;99.90;;;;;;7338104;19;110062;-67
2022/12/03 09:52:27;;;;;;;;;;;4.80;99.90;;;;;;7344962;19;108705;-67
2022/12/03 09:54:54;;;;;;;;;;;4.80;99.90;;;;;;7339563;19;109163;-67
2022/12/03 09:57:21;;;;;;;;;;;4.80;99.90;;;;;;7337217;19;109095;-69
2022/12/03 09:59:48;;;;;;;;;;;4.90;99.90;;;;;;7338676;19;109077;-67
2022/12/03 10:02:25;;;;;;;;;;;4.90;99.90;;;;;;7337707;19;109150;-68
2022/12/03 10:04:52;;;;;;;;;;;4.80;99.90;;;;;;7339858;19;109274;-67
2022/12/03 10:07:21;;;;;;;;;;;4.70;99.90;;;;;;7338143;19;109100;-67
2022/12/03 10:09:47;;;;;;;;;;;4.80;99.90;;;;;;7337033;19;110319;-68
2022/12/03 10:12:19;;;;;;;;;;;4.80;99.90;;;;;;7344141;19;108997;-67
2022/12/03 10:14:46;;;;;;;;;;;4.80;99.90;;;;;;7336387;19;110050;-67
2022/12/03 10:17:13;;;;;;;;;;;4.80;99.90;;;;;;7337415;19;108755;-67
2022/12/03 10:19:41;;;;;;;;;;;4.80;99.90;;;;;;7338486;19;108785;-67
2022/12/03 10:22:08;;;;;;;;;;;4.80;99.90;;;;;;7339340;19;110483;-68
2022/12/03 10:24:36;;;;;;;;;;;4.80;99.90;;;;;;7337740;19;108586;-68
2022/12/03 10:27:07;;;;;;;;;;;4.70;99.90;;;;;;7338345;19;109573;-68
2022/12/03 10:29:34;;;;;;;;;;;4.60;99.90;;;;;;7338135;19;110451;-68
2022/12/03 10:32:02;;;;;;;;;;;4.60;99.90;;;;;;7338393;19;110027;-68
2022/12/03 10:34:31;;;;;;;;;;;4.70;99.90;;;;;;7342399;19;109267;-68
2022/12/03 10:37:07;;;;;;;;;;;4.60;99.90;;;;;;7336247;19;108557;-68
2022/12/03 10:39:51;;;;;;;;;;;4.60;99.90;;;;;;7339880;19;109207;-68
2022/12/03 10:42:22;;;;;;;;;;;4.60;99.90;;;;;;7337056;19;110209;-68
2022/12/03 10:45:05;;;;;;;;;;;4.50;99.90;;;;;;7336610;19;109032;-68
2022/12/03 10:47:31;;;;;;;;;;;4.40;99.90;;;;;;7338081;19;109002;-68
2022/12/03 10:50:04;;;;;;;;;;;4.50;99.90;;;;;;7335965;19;110371;-68
2022/12/03 10:52:31;;;;;;;;;;;4.40;99.90;;;;;;7337966;19;108550;-68
2022/12/03 10:54:58;;;;;;;;;;;4.50;99.90;;;;;;7340443;19;109343;-68
2022/12/03 10:57:25;;;;;;;;;;;4.60;99.90;;;;;;7340686;19;109265;-68
2022/12/03 10:59:52;;;;;;;;;;;4.70;99.90;;;;;;7338461;19;109509;-68
2022/12/03 11:02:20;;;;;;;;;;;4.70;99.90;;;;;;7337203;19;110467;-68
2022/12/03 11:04:48;;;;;;;;;;;4.70;99.90;;;;;;7338745;19;109642;-68
2022/12/03 11:07:16;;;;;;;;;;;4.70;99.90;;;;;;7336910;19;109677;-68
2022/12/03 11:09:44;;;;;;;;;;;4.60;99.90;;;;;;7335956;19;110176;-68
2022/12/03 11:12:33;;;;;;;;;;;4.70;99.90;;;;;;7334283;19;108729;-68
2022/12/03 11:15:05;;;;;;;;;;;4.60;99.90;;;;;;7334709;19;108429;-68
2022/12/03 11:17:51;;;;;;;;;;;4.60;99.90;;;;;;7336761;19;110362;-68
2022/12/03 11:20:18;;;;;;;;;;;4.60;99.90;;;;;;7341867;19;109226;-69
2022/12/03 11:22:51;;;;;;;;;;;4.60;99.90;;;;;;7336504;19;110354;-69
2022/12/03 11:25:24;;;;;;;;;;;4.60;99.90;;;;;;7336480;19;108957;-69
2022/12/03 11:28:09;;;;;;;;;;;4.60;99.90;;;;;;7338844;19;110018;-68
2022/12/03 11:30:48;;;;;;;;;;;4.50;99.90;;;;;;7337186;19;110604;-69
2022/12/03 11:33:22;;;;;;;;;;;4.50;99.90;;;;;;7335697;19;108954;-69
2022/12/03 11:36:01;;;;;;;;;;;4.60;99.90;;;;;;7337309;19;109364;-69
2022/12/03 11:38:41;;;;;;;;;;;4.60;99.90;;;;;;7333282;19;110159;-69
2022/12/03 11:41:16;;;;;;;;;;;4.50;99.90;;;;;;7335443;19;110318;-70
2022/12/03 11:43:52;;;;;;;;;;;4.50;99.90;;;;;;7341875;19;109116;-78
2022/12/03 11:46:20;;;;;;;;;;;4.60;99.90;;;;;;7334013;19;109338;-73
2022/12/03 11:48:48;;;;;;;;;;;4.50;99.90;;;;;;7336184;19;109160;-76
2022/12/03 11:51:17;;;;;;;;;;;4.50;99.90;;;;;;7334744;19;111403;-70
2022/12/03 11:53:44;;;;;;;;;;;4.60;99.90;;;;;;7337692;19;109357;-69
2022/12/03 11:56:18;;;;;;;;;;;4.70;99.90;;;;;;7335403;19;109110;-72
2022/12/03 11:58:46;;;;;;;;;;;4.70;99.90;;;;;;7335110;19;109120;-70
2022/12/03 12:01:14;;;;;;;;;;;4.70;99.90;;;;;;7343243;19;108487;-69
2022/12/03 12:03:42;;;;;;;;;;;4.60;99.90;;;;;;7350151;19;109210;-69
2022/12/03 12:06:10;;;;;;;;;;;4.60;99.90;;;;;;7342268;19;108273;-69
2022/12/03 12:08:38;;;;;;;;;;;4.60;99.90;;;;;;7343445;19;109410;-69
2022/12/03 12:11:15;;;;;;;;;;;4.60;99.90;;;;;;7341904;19;110590;-68
2022/12/03 12:13:42;;;;;;;;;;;4.70;99.90;;;;;;7342958;19;108899;-69
2022/12/03 12:16:09;;;;;;;;;;;4.70;99.90;;;;;;7340663;19;109772;-69
2022/12/03 12:18:39;;;;;;;;;;;4.70;99.90;;;;;;7340903;19;110098;-69
2022/12/03 12:21:24;;;;;;;;;;;4.70;99.90;;;;;;7343484;19;110783;-68
2022/12/03 12:23:51;;;;;;;;;;;4.70;99.90;;;;;;7344445;19;109985;-70
2022/12/03 12:26:18;;;;;;;;;;;4.70;99.90;;;;;;7347829;19;109790;-68
2022/12/03 12:28:45;;;;;;;;;;;4.80;99.90;;;;;;7343574;19;109178;-68
2022/12/03 12:31:12;;;;;;;;;;;4.80;99.90;;;;;;7340623;19;110438;-69
2022/12/03 12:33:39;;;;;;;;;;;4.90;99.90;;;;;;7344474;19;108574;-71
2022/12/03 12:36:09;;;;;;;;;;;4.90;99.90;;;;;;7341024;19;110621;-68
2022/12/03 12:38:36;;;;;;;;;;;4.90;99.90;;;;;;7342651;19;110281;-68
2022/12/03 12:41:05;;;;;;;;;;;5.00;99.90;;;;;;7341552;19;108895;-68
2022/12/03 12:43:34;;;;;;;;;;;5.00;99.90;;;;;;7342654;19;108689;-69
2022/12/03 12:46:09;;;;;;;;;;;5.10;99.90;;;;;;7339191;19;109174;-69
2022/12/03 12:48:56;;;;;;;;;;;5.10;99.90;;;;;;7345982;19;109628;-69
2022/12/03 12:51:25;;;;;;;;;;;5.10;99.90;;;;;;7339490;19;110413;-76
2022/12/03 12:53:52;;;;;;;;;;;5.00;99.90;;;;;;7341581;19;109325;-75
2022/12/03 12:56:19;;;;;;;;;;;5.00;99.90;;;;;;7340706;19;109113;-77
2022/12/03 12:58:46;;;;;;;;;;;4.90;99.90;;;;;;7340487;19;109823;-72
2022/12/03 13:01:35;;;;;;;;;;;5.00;99.90;;;;;;7342866;19;108706;-79
2022/12/03 13:04:09;;;;;;;;;;;4.90;99.90;;;;;;7340575;19;109086;-81
2022/12/03 13:06:36;;;;;;;;;;;5.00;99.90;;;;;;7340576;19;110205;-73
2022/12/03 13:09:03;;;;;;;;;;;5.10;99.90;;;;;;7339612;19;108805;-74
2022/12/03 13:11:30;;;;;;;;;;;5.20;99.90;;;;;;7344448;19;109038;-77
2022/12/03 13:13:59;;;;;;;;;;;5.00;99.90;;;;;;7339060;19;108658;-76
2022/12/03 13:16:30;;;;;;;;;;;5.00;99.90;;;;;;7341567;19;109251;-69
2022/12/03 13:18:58;;;;;;;;;;;5.00;99.90;;;;;;7335046;19;111162;-69
2022/12/03 13:21:42;;;;;;;;;;;5.00;99.90;;;;;;7337034;19;108766;-69
2022/12/03 13:24:28;;;;;;;;;;;4.90;99.90;;;;;;7337570;19;109183;-68
2022/12/03 13:26:55;;;;;;;;;;;4.90;99.90;;;;;;7335855;19;113398;-69
2022/12/03 13:29:22;;;;;;;;;;;4.80;99.90;;;;;;7335914;19;108892;-68
2022/12/03 13:32:00;;;;;;;;;;;4.90;99.90;;;;;;7336327;19;110119;-69
2022/12/03 13:34:30;;;;;;;;;;;4.90;99.90;;;;;;7341854;19;110698;-68
2022/12/03 13:36:58;;;;;;;;;;;4.90;99.90;;;;;;7335775;19;111559;-69
2022/12/03 13:39:35;;;;;;;;;;;5.00;99.90;;;;;;7339070;19;110386;-68
2022/12/03 13:42:37;;;;;;;;;;;4.90;99.90;;;;;;7341978;19;109250;-69
2022/12/03 13:45:25;;;;;;;;;;;4.80;99.90;;;;;;7340200;19;108440;-68
2022/12/03 13:47:54;;;;;;;;;;;4.70;99.90;;;;;;7338293;19;111436;-68
2022/12/03 13:50:34;;;;;;;;;;;4.70;99.90;;;;;;7340217;19;108696;-68
2022/12/03 13:53:20;;;;;;;;;;;4.70;99.90;;;;;;7339379;19;109567;-68
2022/12/03 13:55:49;;;;;;;;;;;4.60;99.90;;;;;;7341026;19;109509;-68
2022/12/03 13:58:16;;;;;;;;;;;4.60;99.90;;;;;;7345010;19;112839;-68
2022/12/03 14:00:43;;;;;;;;;;;4.50;99.90;;;;;;7340861;19;110041;-68
2022/12/03 14:03:10;;;;;;;;;;;4.40;99.90;;;;;;7338051;19;108488;-68
2022/12/03 14:05:37;;;;;;;;;;;4.40;99.90;;;;;;7340527;19;113081;-68
2022/12/03 14:08:04;;;;;;;;;;;4.40;99.90;;;;;;7334520;19;110492;-68
2022/12/03 14:10:32;;;;;;;;;;;4.30;99.90;;;;;;7335847;19;109142;-68
2022/12/03 14:12:59;;;;;;;;;;;4.40;99.90;;;;;;7339569;19;109959;-68
2022/12/03 14:15:26;;;;;;;;;;;4.30;99.90;;;;;;7341306;19;110305;-68
2022/12/03 14:17:53;;;;;;;;;;;4.30;99.90;;;;;;7344178;19;108454;-68
2022/12/03 14:20:20;;;;;;;;;;;4.30;99.90;;;;;;7337867;19;109246;-68
2022/12/03 14:22:46;;;;;;;;;;;4.20;99.90;;;;;;7335012;19;108464;-68
2022/12/03 14:25:13;;;;;;;;;;;4.30;99.90;;;;;;7339228;19;109394;-68
2022/12/03 14:27:40;;;;;;;;;;;4.30;99.90;;;;;;7340833;19;110027;-68
2022/12/03 14:30:07;;;;;;;;;;;4.30;99.90;;;;;;7337921;19;108762;-68
2022/12/03 14:32:34;;;;;;;;;;;4.20;99.90;;;;;;7336495;19;109861;-68
2022/12/03 14:35:01;;;;;;;;;;;4.20;99.90;;;;;;7338339;19;110483;-68
2022/12/03 14:37:35;;;;;;;;;;;4.30;99.90;;;;;;7337995;19;108959;-68
2022/12/03 14:40:02;;;;;;;;;;;4.30;99.90;;;;;;7345447;19;109008;-68
2022/12/03 14:42:29;;;;;;;;;;;4.30;99.90;;;;;;7338549;19;108880;-68
2022/12/03 14:44:56;;;;;;;;;;;4.30;99.90;;;;;;7339841;19;109864;-68
2022/12/03 14:47:23;;;;;;;;;;;4.30;99.90;;;;;;7334308;19;109373;-68